Time;durP1;ratioP1;P1;durP2;ratioP2;P2;SDS_P1;SDS_P2;PMS_P1;PMS_P2;Temp;Humidity;BMP_temperature;BMP_pressure;BME280_temperature;BME280_humidity;BME280_pressure;Samples;Min_cycle;Max_cycle;Signal;HPM_P1;HPM_P2
2021/11/08 05:21:46;;;;;;;20.73;13.90;;;5.70;99.90;;;;;;4976792;28;20511;-66
2021/11/08 05:24:31;;;;;;;20.40;16.40;;;5.70;99.90;;;;;;4977277;28;20470;-65
2021/11/08 05:30:01;;;;;;;25.70;15.97;;;5.80;99.90;;;;;;4977169;28;20431;-67
2021/11/08 05:32:31;;;;;;;24.47;14.03;;;5.90;99.90;;;;;;4976011;28;20477;-66
2021/11/08 05:35:00;;;;;;;21.23;13.93;;;5.90;99.90;;;;;;4976287;28;20903;-67
2021/11/08 05:37:28;;;;;;;16.23;13.50;;;6.00;99.90;;;;;;4976146;28;20467;-66
2021/11/08 05:39:57;;;;;;;18.53;13.57;;;6.00;99.90;;;;;;4976144;28;20460;-67
2021/11/08 05:42:24;;;;;;;18.03;13.67;;;6.10;99.90;;;;;;4976127;28;20496;-66
2021/11/08 05:44:53;;;;;;;21.10;11.57;;;6.20;99.90;;;;;;4975839;28;20491;-67
2021/11/08 05:47:20;;;;;;;18.53;11.60;;;6.30;99.90;;;;;;4976190;28;20471;-67
2021/11/08 05:49:47;;;;;;;18.70;11.80;;;6.30;99.90;;;;;;4975930;28;20970;-66
2021/11/08 05:52:16;;;;;;;16.70;10.33;;;6.30;99.90;;;;;;4975803;28;20480;-66
2021/11/08 05:54:44;;;;;;;16.83;11.20;;;6.30;99.90;;;;;;4975958;28;20464;-66
2021/11/08 06:00:24;;;;;;;22.80;11.93;;;6.40;99.90;;;;;;4968900;28;20447;-70
2021/11/08 06:49:34;;;;;;;13.53;8.90;;;6.60;99.90;;;;;;4976923;28;20420;-66
2021/11/08 06:52:01;;;;;;;10.97;9.17;;;6.60;99.90;;;;;;4978242;28;20843;-66
2021/11/08 06:54:29;;;;;;;16.60;10.20;;;6.60;99.90;;;;;;4978511;28;20602;-66
2021/11/08 06:56:59;;;;;;;11.70;8.70;;;6.60;99.90;;;;;;4978391;28;20491;-67
2021/11/08 06:59:28;;;;;;;14.83;9.67;;;6.60;99.90;;;;;;4980430;28;20440;-67
2021/11/08 07:01:55;;;;;;;12.57;8.90;;;6.70;99.90;;;;;;4979587;28;20494;-68
2021/11/08 07:04:23;;;;;;;19.47;9.57;;;6.80;99.90;;;;;;4980081;28;21101;-66
2021/11/08 07:06:50;;;;;;;15.07;12.03;;;6.80;99.90;;;;;;4981811;28;20488;-66
2021/11/08 07:09:18;;;;;;;14.60;12.00;;;6.90;99.90;;;;;;4980032;28;20497;-67
2021/11/08 07:11:45;;;;;;;16.30;10.07;;;7.00;99.90;;;;;;4979800;28;20998;-67
2021/11/08 07:14:14;;;;;;;15.60;10.23;;;7.20;99.90;;;;;;4979710;28;20475;-67
2021/11/08 07:16:44;;;;;;;13.50;8.77;;;7.40;99.90;;;;;;4978553;28;20441;-67
2021/11/08 07:19:11;;;;;;;12.63;8.53;;;7.70;99.90;;;;;;4978463;28;20445;-67
2021/11/08 07:21:39;;;;;;;12.90;8.90;;;8.10;99.90;;;;;;4978265;28;20486;-66
2021/11/08 07:24:05;;;;;;;11.67;6.70;;;8.60;99.90;;;;;;4978258;28;20482;-67
2021/11/08 07:26:33;;;;;;;8.10;6.77;;;9.30;99.90;;;;;;4978565;28;20466;-68
2021/11/08 07:28:59;;;;;;;9.97;6.50;;;10.00;99.90;;;;;;4978846;28;20473;-68
2021/11/08 07:31:28;;;;;;;9.80;6.67;;;10.80;99.90;;;;;;4978217;28;20481;-68
2021/11/08 07:33:54;;;;;;;10.83;6.50;;;11.60;99.90;;;;;;4979305;28;20460;-67
2021/11/08 07:36:21;;;;;;;6.17;5.57;;;12.20;99.90;;;;;;4979772;28;20472;-67
2021/11/08 07:38:48;;;;;;;8.97;5.70;;;12.80;99.90;;;;;;4977998;28;20469;-67
2021/11/08 07:41:15;;;;;;;9.20;5.70;;;13.20;99.90;;;;;;4977459;28;20477;-68
2021/11/08 07:43:43;;;;;;;8.30;5.40;;;13.10;99.90;;;;;;4977752;28;20482;-68
2021/11/08 07:46:10;;;;;;;10.47;6.20;;;13.20;99.90;;;;;;4977665;28;20461;-68
2021/11/08 07:48:40;;;;;;;8.27;5.40;;;13.60;99.90;;;;;;4978243;28;20462;-67
2021/11/08 07:51:07;;;;;;;7.27;5.77;;;14.30;99.90;;;;;;4977496;28;20480;-69
2021/11/08 07:53:34;;;;;;;14.80;6.20;;;15.00;99.90;;;;;;4977216;28;20458;-67
2021/11/08 07:56:01;;;;;;;7.50;5.90;;;15.80;99.90;;;;;;4977506;28;20458;-67
2021/11/08 07:58:27;;;;;;;10.50;5.77;;;16.40;99.90;;;;;;4977770;28;20468;-68
2021/11/08 08:00:54;;;;;;;8.53;6.83;;;16.80;99.90;;;;;;4976889;28;21006;-68
2021/11/08 08:03:25;;;;;;;9.90;7.00;;;16.70;99.90;;;;;;4977034;28;20488;-67
2021/11/08 08:05:55;;;;;;;11.20;6.03;;;16.70;99.90;;;;;;4976997;28;20445;-68
2021/11/08 08:08:21;;;;;;;11.20;6.77;;;17.60;99.90;;;;;;4977356;28;20469;-67
2021/11/08 08:10:51;;;;;;;9.10;6.57;;;17.90;99.90;;;;;;4983147;28;20481;-67
2021/11/08 08:13:21;;;;;;;9.80;6.77;;;18.30;99.90;;;;;;4985712;28;20457;-67
2021/11/08 08:15:48;;;;;;;11.00;5.90;;;18.60;99.50;;;;;;4980374;28;20508;-67
2021/11/08 08:18:14;;;;;;;6.60;5.73;;;18.90;99.80;;;;;;4979533;28;20466;-68
2021/11/08 08:20:42;;;;;;;9.53;6.33;;;20.00;97.80;;;;;;4978122;28;20488;-68
2021/11/08 08:23:10;;;;;;;7.97;6.20;;;20.80;95.20;;;;;;4978576;28;20458;-67
2021/11/08 08:25:37;;;;;;;9.23;5.80;;;21.60;93.20;;;;;;4977743;28;20453;-68
2021/11/08 08:28:05;;;;;;;9.03;6.73;;;21.80;90.40;;;;;;4977079;28;20466;-67
2021/11/08 08:30:32;;;;;;;7.90;6.70;;;21.90;90.70;;;;;;4977610;28;20450;-67
2021/11/08 08:32:58;;;;;;;7.27;6.33;;;21.70;87.10;;;;;;4980749;28;20801;-68
2021/11/08 08:35:25;;;;;;;10.87;8.57;;;20.90;90.00;;;;;;4978246;28;20454;-68
2021/11/08 08:37:52;;;;;;;12.57;8.73;;;20.90;90.50;;;;;;4977155;28;20462;-67
2021/11/08 08:40:20;;;;;;;13.10;9.27;;;19.80;90.50;;;;;;4976276;28;20462;-67
2021/11/08 08:42:47;;;;;;;15.37;9.90;;;18.00;92.30;;;;;;4976585;28;20468;-67
2021/11/08 08:45:14;;;;;;;13.70;10.43;;;16.70;94.10;;;;;;4976590;28;20850;-67
2021/11/08 08:47:41;;;;;;;17.50;10.90;;;15.60;96.70;;;;;;4976283;28;20465;-67
2021/11/08 08:50:09;;;;;;;11.97;10.90;;;14.60;99.90;;;;;;4976101;28;20457;-67
2021/11/08 08:52:36;;;;;;;15.43;11.40;;;13.70;99.90;;;;;;4976509;28;20481;-67
2021/11/08 08:55:05;;;;;;;11.53;9.47;;;13.40;99.90;;;;;;4976189;28;20945;-67
2021/11/08 08:57:33;;;;;;;13.63;10.00;;;13.90;99.90;;;;;;4976851;28;20465;-67
2021/11/08 09:00:00;;;;;;;11.13;9.83;;;14.90;99.90;;;;;;4976501;28;20469;-68
2021/11/08 09:02:27;;;;;;;13.30;10.00;;;16.00;99.90;;;;;;4975924;28;20486;-68
2021/11/08 09:04:53;;;;;;;18.60;12.93;;;15.90;99.90;;;;;;4976224;28;20486;-66
2021/11/08 09:07:20;;;;;;;15.63;12.17;;;15.30;99.90;;;;;;4976323;28;20847;-67
2021/11/08 09:09:47;;;;;;;14.93;12.80;;;14.90;99.90;;;;;;4976042;28;20461;-67
2021/11/08 09:12:14;;;;;;;20.57;13.37;;;14.50;99.90;;;;;;4976109;28;20473;-68
2021/11/08 09:14:42;;;;;;;15.47;12.40;;;14.00;99.90;;;;;;4976746;28;20507;-67
2021/11/08 09:17:09;;;;;;;10.03;9.10;;;14.10;99.90;;;;;;4976485;28;20458;-67
2021/11/08 09:19:36;;;;;;;12.43;7.77;;;14.40;99.90;;;;;;4976467;28;20467;-67
2021/11/08 09:22:03;;;;;;;15.17;7.20;;;14.70;99.90;;;;;;4976177;28;20485;-66
2021/11/08 09:24:30;;;;;;;12.03;7.13;;;14.90;99.90;;;;;;4976123;28;20474;-67
2021/11/08 09:26:57;;;;;;;11.90;7.63;;;15.30;99.90;;;;;;4976281;28;20462;-67
2021/11/08 09:29:24;;;;;;;14.57;9.00;;;15.90;99.90;;;;;;4975952;28;20956;-69
2021/11/08 09:31:52;;;;;;;11.63;7.73;;;16.70;99.90;;;;;;4975853;28;20489;-66
2021/11/08 09:34:21;;;;;;;8.97;6.80;;;16.60;99.90;;;;;;4976100;28;20454;-66
2021/11/08 09:36:50;;;;;;;10.20;6.93;;;16.60;99.90;;;;;;4975834;28;20461;-65
2021/11/08 09:39:22;;;;;;;17.20;9.40;;;17.10;99.60;;;;;;4976163;28;20865;-66
2021/11/08 09:41:50;;;;;;;11.20;9.60;;;16.90;99.00;;;;;;4975896;28;20482;-67
2021/11/08 09:44:17;;;;;;;11.33;8.73;;;16.40;99.90;;;;;;4976361;28;20485;-67
2021/11/08 09:46:44;;;;;;;10.13;9.03;;;17.10;99.90;;;;;;4976003;28;20465;-66
2021/11/08 09:49:13;;;;;;;12.80;9.20;;;17.70;98.60;;;;;;4975829;28;20458;-66
2021/11/08 09:51:42;;;;;;;15.13;9.00;;;17.60;98.60;;;;;;4975759;28;20481;-71
2021/11/08 09:54:11;;;;;;;10.57;8.93;;;17.80;98.10;;;;;;4975875;28;20480;-67
2021/11/08 09:56:39;;;;;;;11.20;9.10;;;18.20;97.60;;;;;;4975862;28;20464;-67
2021/11/08 09:59:06;;;;;;;12.03;9.23;;;17.90;97.10;;;;;;4976095;28;20454;-68
2021/11/08 10:01:36;;;;;;;13.80;10.13;;;17.90;97.00;;;;;;4975410;28;20486;-67
2021/11/08 10:04:03;;;;;;;15.60;10.90;;;17.60;97.40;;;;;;4975758;28;20825;-67
2021/11/08 10:06:31;;;;;;;13.40;8.80;;;17.50;98.30;;;;;;4976540;28;20461;-67
2021/11/08 10:08:59;;;;;;;10.70;8.50;;;18.20;97.60;;;;;;4975654;28;20461;-67
2021/11/08 10:11:27;;;;;;;11.30;8.93;;;18.70;96.80;;;;;;4974583;28;20482;-66
2021/11/08 10:13:55;;;;;;;14.70;10.50;;;18.50;95.20;;;;;;4975243;28;20462;-67
2021/11/08 10:16:26;;;;;;;13.60;11.23;;;17.40;96.40;;;;;;4975331;28;20458;-66
2021/11/08 10:18:56;;;;;;;15.83;11.77;;;16.80;97.60;;;;;;4975479;28;20447;-68
2021/11/08 10:21:28;;;;;;;12.50;11.10;;;16.00;99.90;;;;;;4975210;28;20477;-67
2021/11/08 10:23:59;;;;;;;13.40;10.63;;;15.60;99.90;;;;;;4975818;28;21003;-66
2021/11/08 10:26:29;;;;;;;13.57;10.90;;;15.60;99.90;;;;;;4978763;28;20445;-67
2021/11/08 10:28:57;;;;;;;15.43;11.83;;;15.00;99.90;;;;;;4978981;28;20801;-67
2021/11/08 10:31:28;;;;;;;13.37;11.10;;;14.70;99.90;;;;;;4978917;28;20480;-67
2021/11/08 10:33:56;;;;;;;17.37;12.90;;;14.40;99.90;;;;;;4978891;28;20446;-67
2021/11/08 10:36:24;;;;;;;15.97;11.13;;;14.20;99.90;;;;;;4978381;28;20462;-66
2021/11/08 10:38:53;;;;;;;16.13;12.43;;;14.00;99.90;;;;;;4978580;28;20456;-67
2021/11/08 10:41:24;;;;;;;18.13;12.20;;;13.90;99.90;;;;;;4978195;28;20477;-67
2021/11/08 10:43:53;;;;;;;12.97;10.90;;;14.00;99.90;;;;;;4978035;28;20441;-66
2021/11/08 10:46:22;;;;;;;21.47;12.37;;;14.10;99.90;;;;;;4978336;28;20466;-67
2021/11/08 10:48:52;;;;;;;19.90;11.40;;;14.10;99.90;;;;;;4978498;28;20466;-67
2021/11/08 10:51:23;;;;;;;18.23;11.20;;;14.00;99.90;;;;;;4979291;28;20792;-66
2021/11/08 10:53:54;;;;;;;16.17;11.30;;;13.50;99.90;;;;;;4978562;28;20477;-66
2021/11/08 10:56:28;;;;;;;22.27;11.03;;;13.10;99.90;;;;;;4978282;28;20452;-65
2021/11/08 10:58:56;;;;;;;19.43;10.40;;;12.90;99.90;;;;;;4978320;28;20803;-66
2021/11/08 11:01:29;;;;;;;15.50;10.00;;;12.70;99.90;;;;;;4978171;28;20500;-67
2021/11/08 11:03:58;;;;;;;16.77;10.70;;;12.30;99.90;;;;;;4979386;28;20461;-68
2021/11/08 11:06:36;;;;;;;14.80;10.10;;;12.40;99.90;;;;;;4979594;28;20515;-67
2021/11/08 11:09:10;;;;;;;14.40;8.53;;;12.40;99.90;;;;;;4980017;28;20453;-67
2021/11/08 11:11:38;;;;;;;14.93;9.37;;;12.30;99.90;;;;;;4979707;28;20481;-66
2021/11/08 11:14:06;;;;;;;18.93;10.17;;;12.50;99.90;;;;;;4981634;28;20858;-66
2021/11/08 11:16:35;;;;;;;12.53;6.40;;;12.10;99.90;;;;;;4985602;28;20514;-68
2021/11/08 11:19:05;;;;;;;14.27;6.40;;;12.30;99.90;;;;;;4983518;28;20457;-66
2021/11/08 11:21:32;;;;;;;15.10;4.30;;;12.50;99.90;;;;;;4979477;28;20477;-67
2021/11/08 11:24:03;;;;;;;14.53;5.20;;;12.70;99.90;;;;;;4979461;28;20457;-66
2021/11/08 11:26:35;;;;;;;13.33;5.27;;;13.00;99.90;;;;;;4978904;28;20479;-67
2021/11/08 11:29:05;;;;;;;11.93;4.87;;;13.10;99.90;;;;;;4978285;28;20446;-67
2021/11/08 11:31:37;;;;;;;14.57;4.73;;;13.00;99.90;;;;;;4977972;28;20482;-67
2021/11/08 11:34:14;;;;;;;12.23;4.77;;;13.30;99.90;;;;;;4978106;28;20441;-66
2021/11/08 11:36:41;;;;;;;11.80;5.43;;;13.50;99.90;;;;;;4979228;28;20446;-67
2021/11/08 11:39:13;;;;;;;17.13;5.90;;;13.80;99.90;;;;;;4980443;28;20489;-67
2021/11/08 11:41:42;;;;;;;9.53;5.57;;;13.90;99.90;;;;;;4978232;28;20481;-67
2021/11/08 11:44:12;;;;;;;9.90;5.30;;;14.00;99.90;;;;;;4978316;28;20461;-67
2021/11/08 11:46:41;;;;;;;12.10;4.97;;;14.30;99.90;;;;;;4977990;28;20441;-66
2021/11/08 11:49:11;;;;;;;11.27;5.50;;;14.30;99.90;;;;;;4977666;28;20461;-67
2021/11/08 11:51:41;;;;;;;10.30;6.00;;;13.90;99.90;;;;;;4977827;28;20489;-66
2021/11/08 11:54:10;;;;;;;14.70;6.23;;;13.80;99.90;;;;;;4977523;28;20451;-67
2021/11/08 11:56:39;;;;;;;10.83;6.00;;;13.60;99.90;;;;;;4977665;28;20502;-67
2021/11/08 11:59:07;;;;;;;15.53;6.73;;;13.60;99.90;;;;;;4977753;28;20465;-68
2021/11/08 12:01:38;;;;;;;11.93;5.33;;;13.50;99.90;;;;;;4977526;28;20484;-67
2021/11/08 12:04:05;;;;;;;12.67;5.70;;;13.20;99.90;;;;;;4977734;28;20437;-66
2021/11/08 12:06:34;;;;;;;12.30;6.20;;;12.90;99.90;;;;;;4977272;28;20457;-66
2021/11/08 12:09:03;;;;;;;14.70;6.60;;;12.60;99.90;;;;;;4977798;28;20528;-67
2021/11/08 12:11:32;;;;;;;16.60;6.10;;;12.10;99.90;;;;;;4977739;28;20489;-67
2021/11/08 12:14:00;;;;;;;14.57;7.13;;;12.00;99.90;;;;;;4977452;28;20462;-67
2021/11/08 12:16:29;;;;;;;11.73;6.80;;;11.90;99.90;;;;;;4977249;28;20474;-66
2021/11/08 12:18:59;;;;;;;10.77;7.00;;;12.00;99.90;;;;;;4977132;28;20457;-67
2021/11/08 12:21:27;;;;;;;12.53;6.97;;;12.10;99.90;;;;;;4977485;28;20480;-67
2021/11/08 12:23:56;;;;;;;11.90;7.20;;;12.00;99.90;;;;;;4977175;28;20826;-67
2021/11/08 12:26:24;;;;;;;17.03;7.07;;;11.90;99.90;;;;;;4976584;28;21018;-67
2021/11/08 12:28:51;;;;;;;11.40;7.07;;;11.60;99.90;;;;;;4977135;28;20457;-67
2021/11/08 12:31:23;;;;;;;11.90;6.90;;;11.50;99.90;;;;;;4976947;28;20484;-67
2021/11/08 12:34:03;;;;;;;18.90;8.30;;;11.50;99.90;;;;;;4976583;28;20460;-68
2021/11/08 12:36:30;;;;;;;16.60;6.97;;;11.80;99.90;;;;;;4977308;28;20913;-67
2021/11/08 12:38:59;;;;;;;15.30;6.57;;;11.70;99.90;;;;;;4977327;28;20484;-66
2021/11/08 12:41:34;;;;;;;12.30;6.03;;;11.80;99.90;;;;;;4978685;28;20482;-66
2021/11/08 12:44:09;;;;;;;10.67;5.77;;;11.90;99.90;;;;;;4978189;28;20890;-66
2021/11/08 12:46:40;;;;;;;9.90;5.60;;;12.20;99.90;;;;;;4977276;28;20897;-65
2021/11/08 12:49:18;;;;;;;8.07;4.50;;;12.40;99.90;;;;;;4976953;28;20441;-65
2021/11/08 12:51:56;;;;;;;6.80;4.50;;;12.50;99.90;;;;;;4976907;28;20489;-65
2021/11/08 12:54:24;;;;;;;10.30;5.73;;;12.50;99.90;;;;;;4976643;28;20908;-64
2021/11/08 12:56:51;;;;;;;14.67;5.87;;;12.60;99.90;;;;;;4977245;28;20576;-66
2021/11/08 12:59:23;;;;;;;11.13;5.20;;;12.50;99.90;;;;;;4977573;28;20557;-65
2021/11/08 13:01:58;;;;;;;15.17;6.00;;;12.80;99.90;;;;;;4976497;28;20856;-65
2021/11/08 13:04:42;;;;;;;12.13;6.30;;;12.70;99.90;;;;;;4977108;28;20483;-65
2021/11/08 13:07:11;;;;;;;12.40;6.47;;;12.90;99.90;;;;;;4977964;28;20439;-65
2021/11/08 13:09:41;;;;;;;10.70;6.17;;;13.10;99.90;;;;;;4979178;28;20569;-64
2021/11/08 13:12:14;;;;;;;14.47;5.90;;;13.40;99.90;;;;;;4979563;28;20485;-64
2021/11/08 13:14:41;;;;;;;10.33;5.87;;;13.40;99.90;;;;;;4981245;28;20458;-66
2021/11/08 13:17:10;;;;;;;11.43;6.10;;;13.50;99.90;;;;;;4979364;28;20469;-65
2021/11/08 13:19:45;;;;;;;14.00;6.77;;;13.50;99.90;;;;;;4977110;28;20449;-64
2021/11/08 13:22:15;;;;;;;12.97;6.20;;;13.20;99.90;;;;;;4977248;28;20477;-66
2021/11/08 13:24:42;;;;;;;13.37;6.10;;;13.20;99.90;;;;;;4977027;28;20537;-66
2021/11/08 13:27:09;;;;;;;7.80;4.93;;;12.80;99.90;;;;;;4976471;28;20916;-64
2021/11/08 13:29:37;;;;;;;7.43;4.70;;;12.60;99.90;;;;;;4976605;28;20887;-65
2021/11/08 13:32:12;;;;;;;7.00;5.20;;;12.40;99.90;;;;;;4976432;28;20477;-65
2021/11/08 13:34:40;;;;;;;10.30;6.40;;;12.30;99.90;;;;;;4978129;28;20460;-65
2021/11/08 13:37:08;;;;;;;10.07;5.40;;;12.00;99.90;;;;;;4978742;28;20464;-65
2021/11/08 13:39:34;;;;;;;14.63;5.70;;;11.90;99.90;;;;;;4977829;28;20453;-66
2021/11/08 13:42:01;;;;;;;12.97;6.13;;;11.80;99.90;;;;;;4977594;28;20482;-65
2021/11/08 13:44:28;;;;;;;14.40;6.60;;;11.80;99.90;;;;;;4983623;28;20483;-65
2021/11/08 13:46:55;;;;;;;13.40;5.90;;;11.60;99.90;;;;;;4978910;28;20508;-66
2021/11/08 13:49:25;;;;;;;11.53;5.67;;;11.60;99.90;;;;;;4978339;28;20457;-64
2021/11/08 13:51:54;;;;;;;18.73;7.40;;;11.60;99.90;;;;;;4978450;28;20508;-65
2021/11/08 13:54:27;;;;;;;12.23;6.47;;;11.50;99.90;;;;;;4978455;28;20492;-64
2021/11/08 13:56:55;;;;;;;12.67;5.77;;;11.50;99.90;;;;;;4979192;28;20449;-65
2021/11/08 13:59:25;;;;;;;11.77;5.83;;;11.50;99.90;;;;;;4981794;28;20464;-66
2021/11/08 14:01:55;;;;;;;10.40;5.07;;;11.50;99.90;;;;;;4981110;28;20488;-65
2021/11/08 14:04:32;;;;;;;9.90;5.73;;;11.50;99.90;;;;;;4981209;28;20446;-66
2021/11/08 14:06:58;;;;;;;9.67;5.10;;;11.50;99.90;;;;;;4981935;28;20536;-65
2021/11/08 14:09:28;;;;;;;11.30;5.57;;;11.40;99.90;;;;;;4980803;28;20464;-66
2021/11/08 14:11:56;;;;;;;11.73;5.33;;;11.50;99.90;;;;;;4981148;28;20487;-65
2021/11/08 14:14:25;;;;;;;10.50;5.13;;;11.60;99.90;;;;;;4980891;28;20456;-64
2021/11/08 14:16:53;;;;;;;16.17;7.30;;;11.80;99.90;;;;;;4981080;28;20453;-66
2021/11/08 14:19:22;;;;;;;15.50;5.87;;;12.00;99.90;;;;;;4981412;28;20452;-65
2021/11/08 14:21:51;;;;;;;13.40;5.10;;;12.20;99.90;;;;;;4982013;28;20488;-64
2021/11/08 14:24:19;;;;;;;5.57;4.37;;;12.30;99.90;;;;;;4982488;28;20450;-66
2021/11/08 14:26:51;;;;;;;8.63;4.93;;;12.40;99.90;;;;;;4982276;28;20828;-65
2021/11/08 14:29:21;;;;;;;7.87;3.90;;;12.50;99.90;;;;;;4980798;28;20448;-65
2021/11/08 14:31:54;;;;;;;6.93;4.77;;;12.50;99.90;;;;;;4981051;28;20552;-64
2021/11/08 14:34:25;;;;;;;10.73;4.27;;;12.40;99.90;;;;;;4980909;28;20464;-64
2021/11/08 14:36:52;;;;;;;10.50;4.20;;;12.30;99.90;;;;;;4981317;28;20510;-65
2021/11/08 14:39:22;;;;;;;12.73;4.60;;;12.30;99.90;;;;;;4982776;28;20859;-65
2021/11/08 14:42:00;;;;;;;7.90;3.73;;;12.40;99.90;;;;;;4983775;28;20485;-65
2021/11/08 14:44:37;;;;;;;8.43;4.03;;;12.40;99.90;;;;;;4985240;28;20465;-65
2021/11/08 14:47:15;;;;;;;7.57;4.27;;;12.30;99.90;;;;;;4987372;28;20465;-66
2021/11/08 14:49:53;;;;;;;7.47;3.90;;;12.30;99.90;;;;;;4987336;28;20439;-65
2021/11/08 14:52:20;;;;;;;5.67;3.93;;;12.10;99.90;;;;;;4979428;28;20487;-65
2021/11/08 14:54:53;;;;;;;14.33;4.60;;;12.10;99.90;;;;;;4978628;28;20453;-66
2021/11/08 14:57:23;;;;;;;8.17;4.67;;;12.30;99.90;;;;;;4978736;28;20442;-66
2021/11/08 14:59:54;;;;;;;8.90;4.53;;;12.20;99.90;;;;;;4977965;28;20516;-65
2021/11/08 15:02:25;;;;;;;10.03;4.07;;;12.00;99.90;;;;;;4978238;28;20567;-65
2021/11/08 15:04:56;;;;;;;5.97;4.13;;;12.00;99.90;;;;;;4980701;28;20476;-66
2021/11/08 15:07:32;;;;;;;9.27;4.30;;;11.90;99.90;;;;;;4979505;28;20481;-65
2021/11/08 15:10:01;;;;;;;9.57;3.83;;;11.90;99.90;;;;;;4984228;28;20452;-65
2021/11/08 15:12:31;;;;;;;9.80;4.53;;;11.90;99.90;;;;;;4987341;28;20476;-66
2021/11/08 15:15:00;;;;;;;6.67;4.90;;;11.90;99.90;;;;;;4985357;28;20477;-65
2021/11/08 15:17:33;;;;;;;5.33;3.43;;;11.80;99.90;;;;;;4977896;28;20453;-66
2021/11/08 15:20:10;;;;;;;8.43;4.80;;;11.80;99.90;;;;;;4977862;28;20470;-65
2021/11/08 15:22:38;;;;;;;7.03;3.90;;;11.70;99.90;;;;;;4977818;28;20488;-64
2021/11/08 15:25:22;;;;;;;9.23;5.07;;;11.60;99.90;;;;;;4977794;28;20448;-65
2021/11/08 15:28:01;;;;;;;9.60;4.00;;;11.60;99.90;;;;;;4977632;28;20446;-64
2021/11/08 15:30:29;;;;;;;10.37;3.93;;;11.60;99.90;;;;;;4977583;28;20914;-66
2021/11/08 15:33:05;;;;;;;8.43;3.27;;;11.50;99.90;;;;;;4981375;28;20493;-65
2021/11/08 15:35:38;;;;;;;6.37;2.80;;;11.40;99.90;;;;;;4979133;28;20450;-66
2021/11/08 15:38:05;;;;;;;3.93;2.90;;;11.30;99.90;;;;;;4977567;28;20442;-65
2021/11/08 15:40:31;;;;;;;8.43;3.47;;;11.30;99.90;;;;;;4977277;28;20515;-65
2021/11/08 15:43:03;;;;;;;8.60;3.37;;;11.30;99.90;;;;;;4977272;28;20817;-65
2021/11/08 15:45:30;;;;;;;6.33;3.20;;;11.20;99.90;;;;;;4977420;28;20442;-65
2021/11/08 15:47:58;;;;;;;5.37;3.50;;;11.20;99.90;;;;;;4977040;28;20457;-65
2021/11/08 15:50:24;;;;;;;5.00;3.33;;;11.20;99.90;;;;;;4976736;28;20918;-65
2021/11/08 15:52:53;;;;;;;7.83;3.70;;;11.20;99.90;;;;;;4977150;28;20441;-64
2021/11/08 15:55:22;;;;;;;8.80;3.80;;;11.10;99.90;;;;;;4976638;28;20959;-65
2021/11/08 15:57:49;;;;;;;6.53;3.80;;;11.10;99.90;;;;;;4976896;28;20514;-65
2021/11/08 16:00:17;;;;;;;8.40;3.57;;;11.10;99.90;;;;;;4976778;28;20461;-65
2021/11/08 16:02:44;;;;;;;10.87;4.43;;;11.00;99.90;;;;;;4976627;28;20937;-66
2021/11/08 16:05:10;;;;;;;12.20;5.00;;;11.00;99.90;;;;;;4976827;28;20470;-65
2021/11/08 16:07:39;;;;;;;10.37;6.07;;;11.00;99.90;;;;;;4976715;28;20462;-65
2021/11/08 16:10:07;;;;;;;14.03;7.53;;;10.90;99.90;;;;;;4976608;28;20453;-65
2021/11/08 16:12:34;;;;;;;13.50;8.33;;;10.90;99.90;;;;;;4976652;28;20480;-66
2021/11/08 16:15:01;;;;;;;11.87;6.10;;;10.80;99.90;;;;;;4977582;28;20461;-65
2021/11/08 16:17:29;;;;;;;12.80;7.77;;;10.80;99.90;;;;;;4978087;28;20464;-65
2021/11/08 16:19:55;;;;;;;18.40;9.47;;;10.80;99.90;;;;;;4976531;28;20464;-65
2021/11/08 16:22:22;;;;;;;18.13;12.90;;;10.70;99.90;;;;;;4975411;28;20838;-66
2021/11/08 16:24:49;;;;;;;18.23;11.80;;;10.70;99.90;;;;;;4976487;28;20468;-65
2021/11/08 16:27:15;;;;;;;19.27;10.90;;;10.60;99.90;;;;;;4976262;28;20492;-66
2021/11/08 16:29:42;;;;;;;15.57;10.70;;;10.60;99.90;;;;;;4976512;28;20461;-65
2021/11/08 16:32:20;;;;;;;14.63;9.27;;;10.60;99.90;;;;;;4976492;28;20484;-66
2021/11/08 16:34:51;;;;;;;13.90;10.80;;;10.50;99.90;;;;;;4977668;28;20441;-65
2021/11/08 16:37:17;;;;;;;15.93;8.13;;;10.40;99.90;;;;;;4976320;28;20552;-65
2021/11/08 16:39:44;;;;;;;11.47;6.23;;;10.40;99.90;;;;;;4975888;28;21065;-66
2021/11/08 16:42:11;;;;;;;15.10;5.77;;;10.40;99.90;;;;;;4976150;28;20489;-66
2021/11/08 16:44:38;;;;;;;8.30;4.83;;;10.30;99.90;;;;;;4976066;28;20592;-65
2021/11/08 16:47:05;;;;;;;11.67;5.53;;;10.30;99.90;;;;;;4975786;28;20968;-65
2021/11/08 16:49:32;;;;;;;12.63;5.80;;;10.30;99.90;;;;;;4976037;28;20956;-66
2021/11/08 16:52:04;;;;;;;9.97;5.30;;;10.30;99.90;;;;;;4975818;28;20482;-65
2021/11/08 16:54:30;;;;;;;11.00;6.47;;;10.20;99.90;;;;;;4975644;28;20441;-65
2021/11/08 16:56:57;;;;;;;9.40;5.67;;;10.20;99.90;;;;;;4976802;28;20470;-65
2021/11/08 16:59:24;;;;;;;10.90;6.80;;;10.10;99.90;;;;;;4977210;28;20457;-66
2021/11/08 17:01:51;;;;;;;12.77;7.10;;;10.10;99.90;;;;;;4977303;28;20489;-64
2021/11/08 17:04:20;;;;;;;16.03;8.00;;;10.00;99.90;;;;;;4975835;28;20453;-65
2021/11/08 17:06:49;;;;;;;9.43;5.57;;;9.90;99.90;;;;;;4975666;28;20477;-65
2021/11/08 17:09:23;;;;;;;14.77;9.70;;;9.80;99.90;;;;;;4975601;28;20956;-65
2021/11/08 17:14:34;;;;;;;8.13;5.30;;;9.70;99.90;;;;;;4976461;28;20433;-64
2021/11/08 17:17:01;;;;;;;13.50;5.77;;;9.60;99.90;;;;;;4976303;28;20939;-64
2021/11/08 17:19:29;;;;;;;9.53;5.70;;;9.50;99.90;;;;;;4975705;28;20457;-64
2021/11/08 17:21:55;;;;;;;13.97;5.70;;;9.50;99.90;;;;;;4981625;28;20499;-64
2021/11/08 17:24:23;;;;;;;18.80;8.47;;;9.40;99.90;;;;;;4979760;28;20460;-64
2021/11/08 17:26:50;;;;;;;21.80;12.70;;;9.30;99.90;;;;;;4975718;28;20504;-64
2021/11/08 17:29:20;;;;;;;20.23;13.47;;;9.20;99.90;;;;;;4975935;28;20485;-65
2021/11/08 17:31:47;;;;;;;29.10;16.33;;;9.10;99.90;;;;;;4975730;28;20479;-65
2021/11/08 17:34:14;;;;;;;21.13;13.73;;;9.00;99.90;;;;;;4975709;28;20445;-64
2021/11/08 17:36:41;;;;;;;14.10;10.03;;;8.90;99.90;;;;;;4976211;28;20972;-64
2021/11/08 17:39:08;;;;;;;15.23;9.07;;;8.80;99.90;;;;;;4976105;28;20823;-65
2021/11/08 17:41:37;;;;;;;15.10;10.03;;;8.80;99.90;;;;;;4975550;28;20479;-64
2021/11/08 17:44:06;;;;;;;13.23;8.87;;;8.70;99.90;;;;;;4975172;28;21003;-65
2021/11/08 17:46:33;;;;;;;16.13;7.30;;;8.60;99.90;;;;;;4975206;28;20465;-65
2021/11/08 17:49:00;;;;;;;12.87;7.70;;;8.50;99.90;;;;;;4975503;28;20955;-65
2021/11/08 17:51:27;;;;;;;10.77;6.80;;;8.50;99.90;;;;;;4979721;28;20475;-65
2021/11/08 17:53:54;;;;;;;11.13;7.03;;;8.50;99.90;;;;;;4981977;28;20457;-64
2021/11/08 17:56:21;;;;;;;12.67;6.43;;;8.50;99.90;;;;;;4978172;28;20809;-65
2021/11/08 17:58:51;;;;;;;8.50;6.60;;;8.50;99.90;;;;;;4975015;28;20492;-64
2021/11/08 18:01:18;;;;;;;11.20;6.27;;;8.50;99.90;;;;;;4974590;28;21019;-66
2021/11/08 18:03:45;;;;;;;8.70;5.33;;;8.40;99.90;;;;;;4976382;28;20461;-66
2021/11/08 18:06:12;;;;;;;7.90;5.63;;;8.40;99.90;;;;;;4976214;28;20442;-65
2021/11/08 18:08:39;;;;;;;9.97;6.17;;;8.30;99.90;;;;;;4975075;28;20452;-64
2021/11/08 18:11:08;;;;;;;13.10;5.50;;;8.30;99.90;;;;;;4974778;28;20532;-65
2021/11/08 18:13:35;;;;;;;7.90;5.67;;;8.20;99.90;;;;;;4975172;28;20555;-66
2021/11/08 18:16:03;;;;;;;10.17;6.13;;;8.20;99.90;;;;;;4975517;28;20446;-66
2021/11/08 18:18:30;;;;;;;12.13;5.67;;;8.10;99.90;;;;;;4975569;28;20545;-66
2021/11/08 18:21:06;;;;;;;8.23;5.67;;;8.10;99.90;;;;;;4976802;28;20480;-66
2021/11/08 18:23:38;;;;;;;12.17;5.93;;;8.00;99.90;;;;;;4974932;28;20818;-66
2021/11/08 18:29:06;;;;;;;12.80;8.50;;;7.90;99.90;;;;;;4934854;29;20969;-66
2021/11/08 18:31:34;;;;;;;15.07;8.60;;;7.80;99.90;;;;;;4934465;29;20480;-66
2021/11/08 18:34:01;;;;;;;12.17;8.57;;;7.80;99.90;;;;;;4952260;28;20471;-67
2021/11/08 18:36:28;;;;;;;9.20;6.80;;;7.80;99.90;;;;;;4975254;28;20555;-65
2021/11/08 18:38:57;;;;;;;13.20;7.40;;;7.70;99.90;;;;;;4974812;28;20798;-67
2021/11/08 18:41:23;;;;;;;12.50;6.90;;;7.70;99.90;;;;;;4974883;28;20508;-66
2021/11/08 18:43:51;;;;;;;16.20;9.37;;;7.70;99.90;;;;;;4974760;28;20462;-66
2021/11/08 18:46:20;;;;;;;14.00;7.67;;;7.60;99.90;;;;;;4977537;28;20453;-66
2021/11/08 18:48:48;;;;;;;11.87;8.20;;;7.60;99.90;;;;;;4978240;28;20463;-65
2021/11/08 18:51:17;;;;;;;11.50;8.80;;;7.50;99.90;;;;;;4978458;28;20494;-65
2021/11/08 18:53:44;;;;;;;12.67;8.80;;;7.50;99.90;;;;;;4978402;28;20448;-68
2021/11/08 18:56:12;;;;;;;13.50;9.43;;;7.40;99.90;;;;;;4978603;28;20461;-67
2021/11/08 18:58:40;;;;;;;14.70;9.03;;;7.40;99.90;;;;;;4978231;28;20492;-67
2021/11/08 19:01:07;;;;;;;13.53;9.07;;;7.30;99.90;;;;;;4977636;28;20858;-67
2021/11/08 19:03:44;;;;;;;18.00;10.00;;;7.30;99.90;;;;;;4978015;28;20876;-67
2021/11/08 19:06:23;;;;;;;13.30;8.50;;;7.20;99.90;;;;;;4978375;28;20909;-66
2021/11/08 19:08:53;;;;;;;12.33;8.67;;;7.20;99.90;;;;;;4978031;28;20437;-67